Time;durP1;ratioP1;P1;durP2;ratioP2;P2;SDS_P1;SDS_P2;PMS_P1;PMS_P2;Temp;Humidity;BMP_temperature;BMP_pressure;BME280_temperature;BME280_humidity;BME280_pressure;Samples;Min_cycle;Max_cycle;Signal;HPM_P1;HPM_P2
2021/03/03 00:02:07;;;;;;;80.65;46.73;;;;;;;11.21;45.99;101684.52;2465410;80;25619;-78
2021/03/03 00:05:29;;;;;;;72.17;42.48;;;;;;;11.20;45.98;101690.55;2504871;78;25592;-76
2021/03/03 00:08:50;;;;;;;77.03;45.35;;;;;;;11.18;45.95;101694.41;2504601;78;25593;-78
2021/03/03 00:12:12;;;;;;;80.95;43.70;;;;;;;11.18;45.96;101692.22;2456599;78;25735;-78
2021/03/03 00:15:33;;;;;;;69.90;41.92;;;;;;;11.16;45.97;101697.78;2418595;81;25669;-76
2021/03/03 00:18:54;;;;;;;67.27;39.45;;;;;;;11.16;45.93;101695.17;2435491;80;25608;-77
2021/03/03 00:22:16;;;;;;;71.70;39.88;;;;;;;11.13;45.93;101692.01;2421443;80;25628;-78
2021/03/03 00:25:37;;;;;;;66.90;38.53;;;;;;;11.12;45.89;101688.93;2433830;81;25685;-77
2021/03/03 00:28:59;;;;;;;64.82;38.58;;;;;;;11.11;45.88;101687.16;2426502;81;25670;-77
2021/03/03 00:32:20;;;;;;;57.75;37.25;;;;;;;11.08;45.89;101685.30;2426345;80;25604;-75
2021/03/03 00:35:42;;;;;;;64.37;36.83;;;;;;;11.08;45.88;101684.41;2426359;81;25534;-77
2021/03/03 00:39:04;;;;;;;62.70;37.08;;;;;;;11.06;45.85;101679.11;2426528;81;25597;-78
2021/03/03 00:42:25;;;;;;;58.38;36.17;;;;;;;11.04;45.83;101671.65;2426189;81;25635;-76
2021/03/03 00:45:47;;;;;;;50.92;33.53;;;;;;;11.04;45.86;101675.98;2426487;80;25644;-77
2021/03/03 00:49:11;;;;;;;60.05;34.27;;;;;;;11.02;45.84;101674.59;2426227;81;25665;-78
2021/03/03 00:52:32;;;;;;;55.58;33.55;;;;;;;11.01;45.84;101678.46;2426329;81;25578;-78
2021/03/03 00:55:55;;;;;;;56.53;34.45;;;;;;;10.99;45.83;101681.41;2426257;81;26067;-78
2021/03/03 00:59:21;;;;;;;53.42;33.23;;;;;;;10.99;45.82;101687.93;2426363;81;25779;-78
2021/03/03 01:02:49;;;;;;;51.68;32.67;;;;;;;10.97;45.78;101685.27;2426580;81;25318;-77
2021/03/03 01:06:10;;;;;;;53.80;31.48;;;;;;;10.96;45.78;101677.36;2426370;79;25708;-77
2021/03/03 01:09:32;;;;;;;51.77;30.62;;;;;;;10.94;45.77;101674.70;2426233;81;25656;-77
2021/03/03 01:12:54;;;;;;;53.13;32.45;;;;;;;10.93;45.76;101677.22;2426489;81;25561;-77
2021/03/03 01:16:15;;;;;;;49.70;30.97;;;;;;;10.91;45.75;101665.43;2404640;81;25796;-77
2021/03/03 01:19:37;;;;;;;48.65;30.45;;;;;;;10.91;45.72;101667.16;2426268;81;25636;-77
2021/03/03 01:22:59;;;;;;;46.73;31.07;;;;;;;10.90;45.74;101653.61;2426101;80;25128;-78
2021/03/03 01:26:21;;;;;;;46.37;30.50;;;;;;;10.87;45.73;101661.80;2426244;81;25604;-77
2021/03/03 01:29:42;;;;;;;51.65;30.17;;;;;;;10.87;45.72;101650.06;2426275;81;25722;-77
2021/03/03 01:33:05;;;;;;;46.10;29.30;;;;;;;10.86;45.74;101647.37;2426233;80;25266;-79
2021/03/03 01:36:27;;;;;;;44.93;29.48;;;;;;;10.85;45.69;101650.40;2426409;81;25541;-79
2021/03/03 01:39:48;;;;;;;40.65;27.52;;;;;;;10.84;45.70;101650.34;2426399;81;25600;-78
2021/03/03 01:43:10;;;;;;;46.73;30.37;;;;;;;10.83;45.69;101648.54;2426258;81;25495;-77
2021/03/03 01:46:31;;;;;;;43.02;29.23;;;;;;;10.83;45.67;101645.93;2426126;81;25434;-76
2021/03/03 01:49:52;;;;;;;44.20;29.65;;;;;;;10.82;45.72;101635.02;2426231;81;25581;-77
2021/03/03 01:53:15;;;;;;;47.98;31.10;;;;;;;10.81;45.64;101638.47;2426398;81;25592;-77
2021/03/03 01:56:36;;;;;;;48.63;30.97;;;;;;;10.80;45.66;101628.45;2426304;80;25931;-77
2021/03/03 01:59:58;;;;;;;49.33;31.15;;;;;;;10.80;45.67;101623.63;2426465;80;25612;-77
2021/03/03 02:03:20;;;;;;;43.85;29.77;;;;;;;10.78;45.65;101623.99;2426094;81;25852;-77
2021/03/03 02:07:03;;;;;;;43.42;29.05;;;;;;;10.77;45.66;101622.22;2426360;81;25589;-77
2021/03/03 02:10:45;;;;;;;49.67;30.55;;;;;;;10.75;45.65;101620.83;2426109;80;25631;-77
2021/03/03 02:14:13;;;;;;;52.58;30.55;;;;;;;10.74;45.63;101614.26;2426280;80;25688;-78
2021/03/03 02:17:35;;;;;;;43.40;29.07;;;;;;;10.73;45.64;101619.89;2426344;81;25596;-78
2021/03/03 02:21:44;;;;;;;44.20;29.27;;;;;;;10.72;45.63;101620.70;2429931;80;25700;-78
2021/03/03 02:25:31;;;;;;;42.35;28.23;;;;;;;10.70;45.65;101620.14;2467838;80;25600;-78
2021/03/03 02:28:53;;;;;;;42.23;27.27;;;;;;;10.69;45.62;101619.67;2333076;84;25714;-79
2021/03/03 02:32:18;;;;;;;46.35;28.92;;;;;;;10.67;45.59;101618.32;2314060;84;25699;-78
2021/03/03 02:35:41;;;;;;;40.28;27.02;;;;;;;10.64;45.64;101616.87;2292494;86;25436;-77
2021/03/03 02:39:05;;;;;;;41.68;26.70;;;;;;;10.62;45.64;101608.97;2292487;86;25791;-78
2021/03/03 02:42:27;;;;;;;45.43;27.70;;;;;;;10.62;45.61;101610.70;2292446;84;25461;-79
2021/03/03 02:45:49;;;;;;;45.52;29.18;;;;;;;10.60;45.65;101608.03;2292245;86;25247;-78
2021/03/03 02:49:12;;;;;;;40.08;28.02;;;;;;;10.58;45.65;101612.28;2292206;84;25722;-77
2021/03/03 02:52:57;;;;;;;44.35;28.00;;;;;;;10.59;45.63;101607.53;2292387;84;25551;-80
2021/03/03 02:56:19;;;;;;;44.50;28.50;;;;;;;10.58;45.68;101611.40;2292286;85;25743;-77
2021/03/03 02:59:45;;;;;;;43.65;27.85;;;;;;;10.57;45.66;101615.72;2292198;86;25724;-77
2021/03/03 03:03:32;;;;;;;40.78;27.32;;;;;;;10.55;45.66;101603.02;2292186;85;25647;-78
2021/03/03 03:06:55;;;;;;;38.75;27.75;;;;;;;10.55;45.65;101610.84;2414990;80;25709;-79
2021/03/03 03:10:23;;;;;;;38.58;28.10;;;;;;;10.54;45.66;101617.31;2426232;81;25542;-78
2021/03/03 03:13:46;;;;;;;40.75;25.95;;;;;;;10.53;45.64;101613.81;2426232;81;25569;-79
2021/03/03 03:17:09;;;;;;;41.92;27.67;;;;;;;10.53;45.67;101605.07;2426085;81;26458;-77
2021/03/03 03:20:34;;;;;;;43.02;27.85;;;;;;;10.52;45.66;101612.43;2425927;81;25521;-77
2021/03/03 03:24:00;;;;;;;45.08;27.77;;;;;;;10.51;45.65;101609.35;2425961;80;25701;-77
2021/03/03 03:27:22;;;;;;;43.35;26.60;;;;;;;10.49;45.66;101608.38;2426271;81;25731;-77
2021/03/03 03:30:44;;;;;;;38.48;26.77;;;;;;;10.49;45.68;101601.45;2426260;81;25195;-76
2021/03/03 03:34:09;;;;;;;44.33;27.55;;;;;;;10.49;45.65;101599.25;2426153;81;25667;-77
2021/03/03 03:37:31;;;;;;;40.65;27.62;;;;;;;10.48;45.70;101599.67;2426084;81;25619;-77
2021/03/03 03:40:54;;;;;;;46.08;27.55;;;;;;;10.48;45.69;101596.18;2426006;81;25660;-78
2021/03/03 03:44:18;;;;;;;41.30;26.95;;;;;;;10.47;45.68;101595.30;2426273;81;25708;-78
2021/03/03 03:47:42;;;;;;;41.25;27.77;;;;;;;10.46;45.70;101594.83;2426110;81;25362;-78
2021/03/03 03:51:07;;;;;;;43.58;28.62;;;;;;;10.46;45.67;101596.13;2426153;81;25658;-77
2021/03/03 03:54:28;;;;;;;44.95;28.05;;;;;;;10.47;45.71;101598.31;2425281;80;25542;-77
2021/03/03 03:57:51;;;;;;;44.13;28.90;;;;;;;10.45;45.72;101595.63;2425941;80;25770;-78
2021/03/03 04:01:13;;;;;;;42.55;28.10;;;;;;;10.46;45.70;101599.12;2426269;81;25652;-77
2021/03/03 04:04:35;;;;;;;40.23;27.82;;;;;;;10.44;45.74;101597.77;2426001;81;25872;-77
2021/03/03 04:07:57;;;;;;;40.88;27.98;;;;;;;10.43;45.73;101589.86;2426270;81;25218;-77
2021/03/03 04:11:18;;;;;;;43.98;29.15;;;;;;;10.43;45.68;101589.86;2426540;81;25924;-77
2021/03/03 04:14:40;;;;;;;41.15;27.20;;;;;;;10.42;45.73;101581.56;2426305;81;25720;-79
2021/03/03 04:18:02;;;;;;;42.80;27.75;;;;;;;10.39;45.72;101583.23;2426384;81;25763;-77
2021/03/03 04:21:23;;;;;;;43.83;27.93;;;;;;;10.39;45.72;101583.63;2426183;81;25904;-79
2021/03/03 04:24:45;;;;;;;41.20;28.17;;;;;;;10.38;45.75;101588.37;2426256;81;25557;-77
2021/03/03 04:28:07;;;;;;;44.48;28.65;;;;;;;10.37;45.74;101587.89;2426279;81;25785;-78
2021/03/03 04:31:28;;;;;;;44.30;28.10;;;;;;;10.34;45.71;101588.64;2426207;81;25724;-77
2021/03/03 04:34:53;;;;;;;44.20;29.27;;;;;;;10.33;45.74;101585.56;2426147;79;25620;-78
2021/03/03 04:38:14;;;;;;;45.00;29.42;;;;;;;10.30;45.71;101578.92;2426078;81;25440;-78
2021/03/03 04:41:36;;;;;;;42.27;28.85;;;;;;;10.30;45.73;101576.31;2434749;80;25238;-77
2021/03/03 04:44:59;;;;;;;42.53;28.07;;;;;;;10.28;45.77;101570.55;2466388;80;25711;-78
2021/03/03 04:48:21;;;;;;;43.23;27.45;;;;;;;10.27;45.75;101572.27;2469639;79;25603;-78
2021/03/03 04:51:43;;;;;;;47.88;30.45;;;;;;;10.26;45.79;101582.22;2469527;80;25570;-76
2021/03/03 04:55:06;;;;;;;48.42;30.43;;;;;;;10.26;45.79;101574.78;2469297;79;25721;-77
2021/03/03 04:58:27;;;;;;;46.92;29.30;;;;;;;10.24;45.78;101569.91;2469467;79;25638;-77
2021/03/03 05:01:49;;;;;;;45.20;29.95;;;;;;;10.21;45.76;101574.97;2469432;79;25680;-78
2021/03/03 05:05:12;;;;;;;47.88;29.65;;;;;;;10.20;45.82;101568.87;2469290;80;25509;-77
2021/03/03 05:08:34;;;;;;;50.08;32.53;;;;;;;10.17;45.83;101561.81;2469610;80;25653;-78
2021/03/03 05:11:57;;;;;;;56.08;35.35;;;;;;;10.16;45.81;101560.45;2469389;79;25748;-77
2021/03/03 05:15:24;;;;;;;52.15;31.07;;;;;;;10.14;45.79;101561.67;2307156;84;25788;-79
2021/03/03 05:18:48;;;;;;;53.55;33.00;;;;;;;10.12;45.81;101563.34;2333235;84;25651;-77
2021/03/03 05:22:09;;;;;;;54.80;31.52;;;;;;;10.10;45.83;101557.16;2333317;84;25780;-77
2021/03/03 05:25:34;;;;;;;47.48;30.97;;;;;;;10.08;45.81;101560.09;2333611;81;25716;-77
2021/03/03 05:28:56;;;;;;;50.85;31.73;;;;;;;10.07;45.85;101566.55;2333618;84;25591;-77
2021/03/03 05:32:19;;;;;;;54.38;32.73;;;;;;;10.05;45.89;101570.38;2370622;80;25672;-77
2021/03/03 05:35:43;;;;;;;49.25;31.12;;;;;;;10.02;45.89;101567.62;2469268;80;25402;-76
2021/03/03 05:39:06;;;;;;;48.70;30.17;;;;;;;10.02;45.90;101575.44;2466405;80;25618;-77
2021/03/03 05:42:28;;;;;;;51.42;30.92;;;;;;;10.01;45.89;101577.99;2469346;79;26133;-76
2021/03/03 05:45:51;;;;;;;48.50;30.68;;;;;;;9.99;45.89;101573.11;2469445;80;25703;-77
2021/03/03 05:49:19;;;;;;;56.45;32.78;;;;;;;9.98;45.90;101574.83;2469516;80;25792;-77
2021/03/03 05:52:42;;;;;;;57.45;33.78;;;;;;;9.97;45.90;101566.55;2469625;80;25636;-77
2021/03/03 05:56:09;;;;;;;54.67;31.50;;;;;;;9.97;45.91;101567.84;2469584;79;25642;-78
2021/03/03 05:59:31;;;;;;;50.75;31.52;;;;;;;9.96;45.97;101562.59;2469530;80;25573;-77
2021/03/03 06:02:53;;;;;;;52.75;32.08;;;;;;;9.94;45.92;101565.98;2469435;79;26014;-78
2021/03/03 06:06:15;;;;;;;52.38;30.65;;;;;;;9.94;45.95;101565.98;2469391;79;25685;-78
2021/03/03 06:09:38;;;;;;;56.33;31.93;;;;;;;9.94;45.96;101575.52;2469504;80;25560;-78
2021/03/03 06:12:59;;;;;;;52.93;31.95;;;;;;;9.92;45.98;101566.73;2469287;79;25659;-78
2021/03/03 06:16:25;;;;;;;48.73;31.57;;;;;;;9.92;45.93;101568.95;2469392;79;25596;-77
2021/03/03 06:19:47;;;;;;;53.58;32.25;;;;;;;9.92;45.91;101557.23;2469513;80;25605;-77
2021/03/03 06:23:27;;;;;;;53.13;31.95;;;;;;;9.93;45.89;101563.33;2469549;80;25362;-77
2021/03/03 06:26:58;;;;;;;49.53;31.27;;;;;;;9.91;45.95;101558.03;2469487;80;25429;-78
2021/03/03 06:30:21;;;;;;;55.23;32.70;;;;;;;9.92;45.97;101558.92;2469442;79;25343;-78
2021/03/03 06:33:43;;;;;;;48.85;30.12;;;;;;;9.92;45.95;101558.54;2469254;79;25690;-77
2021/03/03 06:37:05;;;;;;;48.60;30.02;;;;;;;9.91;45.92;101556.73;2469401;80;25619;-78
2021/03/03 06:40:27;;;;;;;51.83;30.82;;;;;;;9.92;45.93;101558.54;2469351;79;25735;-77
2021/03/03 06:43:57;;;;;;;52.30;30.70;;;;;;;9.92;45.95;101557.23;2461005;79;25281;-79
2021/03/03 06:47:24;;;;;;;52.35;29.85;;;;;;;9.92;45.94;101558.54;2426278;81;25561;-78
2021/03/03 06:50:51;;;;;;;53.10;30.20;;;;;;;9.92;45.91;101550.72;2442359;80;25586;-79
2021/03/03 06:54:19;;;;;;;48.45;28.12;;;;;;;9.92;45.91;101544.59;2458880;80;25585;-78
2021/03/03 06:57:40;;;;;;;47.43;28.42;;;;;;;9.93;45.88;101543.38;2425220;80;25606;-79
2021/03/03 07:01:02;;;;;;;49.42;29.65;;;;;;;9.94;45.84;101541.66;2426198;81;25640;-79
2021/03/03 07:04:37;;;;;;;56.98;30.70;;;;;;;9.97;45.85;101535.28;2426095;81;25683;-79
2021/03/03 07:08:01;;;;;;;51.08;28.62;;;;;;;9.98;45.80;101525.75;2426246;81;25141;-78
2021/03/03 07:11:23;;;;;;;44.03;27.40;;;;;;;9.99;45.79;101519.32;2426171;81;25601;-78
2021/03/03 07:14:47;;;;;;;45.95;28.07;;;;;;;9.99;45.80;101520.63;2426316;81;25606;-79
2021/03/03 07:18:34;;;;;;;51.15;30.20;;;;;;;10.00;45.78;101517.60;2425214;81;25498;-76
2021/03/03 07:21:56;;;;;;;47.15;29.27;;;;;;;10.00;45.79;101517.60;2426163;81;25219;-78
2021/03/03 07:25:20;;;;;;;51.68;30.32;;;;;;;10.02;45.77;101518.54;2394374;81;25683;-79
2021/03/03 07:28:43;;;;;;;50.43;28.75;;;;;;;10.03;45.73;101525.14;2426099;80;25497;-78
2021/03/03 07:32:07;;;;;;;49.93;28.35;;;;;;;10.04;45.76;101528.22;2425766;81;25649;-75
2021/03/03 07:35:29;;;;;;;50.67;29.07;;;;;;;10.06;45.70;101523.97;2425994;81;25337;-77
2021/03/03 07:38:52;;;;;;;48.95;29.05;;;;;;;10.08;45.66;101525.33;2426019;81;25787;-77
2021/03/03 07:42:22;;;;;;;45.05;26.57;;;;;;;10.11;45.68;101528.95;2426153;81;25528;-78
2021/03/03 07:45:44;;;;;;;42.45;26.82;;;;;;;10.12;45.67;101526.86;2426557;81;25704;-77
2021/03/03 07:49:10;;;;;;;42.85;26.23;;;;;;;10.14;45.63;101525.19;2426395;81;25398;-78
2021/03/03 07:52:42;;;;;;;46.05;26.97;;;;;;;10.15;45.64;101521.74;2425551;81;25640;-80
2021/03/03 07:56:06;;;;;;;42.40;27.42;;;;;;;10.18;45.61;101519.69;2426517;81;25893;-79
2021/03/03 07:59:28;;;;;;;46.53;27.10;;;;;;;10.21;45.55;101521.55;2426308;81;25505;-78
2021/03/03 08:02:52;;;;;;;40.85;26.23;;;;;;;10.23;45.53;101520.80;2426210;81;25637;-77
2021/03/03 08:06:23;;;;;;;42.08;26.05;;;;;;;10.27;45.49;101520.55;2441621;79;25664;-77
2021/03/03 08:10:21;;;;;;;42.00;27.05;;;;;;;10.29;45.46;101524.09;2445030;80;25700;-75
2021/03/03 08:13:45;;;;;;;43.08;27.32;;;;;;;10.32;45.42;101515.98;2432607;80;25668;-76
2021/03/03 08:17:08;;;;;;;47.48;27.90;;;;;;;10.36;45.40;101514.41;2469456;80;25829;-77
2021/03/03 08:20:30;;;;;;;44.27;25.72;;;;;;;10.39;45.35;101513.23;2469510;80;25701;-75
2021/03/03 08:24:00;;;;;;;43.58;25.97;;;;;;;10.42;45.32;101510.76;2452002;80;25564;-75
2021/03/03 08:27:34;;;;;;;41.13;26.10;;;;;;;10.46;45.33;101502.65;2426193;81;25696;-80
2021/03/03 08:31:24;;;;;;;45.35;26.93;;;;;;;10.48;45.30;101492.77;2433289;80;25806;-76
2021/03/03 08:34:57;;;;;;;44.95;26.00;;;;;;;10.52;45.25;101492.48;2469197;79;25498;-77
2021/03/03 08:38:21;;;;;;;41.00;25.90;;;;;;;10.55;45.24;101478.27;2372626;83;25782;-78
2021/03/03 08:41:44;;;;;;;46.42;27.15;;;;;;;10.59;45.20;101482.36;2357387;82;25594;-77
2021/03/03 08:45:09;;;;;;;41.68;25.40;;;;;;;10.64;45.17;101479.55;2354703;82;25682;-73
2021/03/03 08:48:30;;;;;;;43.90;25.72;;;;;;;10.70;45.16;101474.08;2383381;83;25765;-72
2021/03/03 08:52:05;;;;;;;43.05;26.55;;;;;;;10.74;45.13;101480.81;2383134;83;25765;-74
2021/03/03 08:55:30;;;;;;;43.75;27.48;;;;;;;10.79;45.06;101474.46;2382336;83;25763;-74
2021/03/03 08:58:52;;;;;;;40.73;26.33;;;;;;;10.84;45.10;101478.16;2380141;82;25603;-75
2021/03/03 09:02:15;;;;;;;45.17;25.95;;;;;;;10.87;45.01;101476.56;2404689;80;25616;-76
2021/03/03 09:05:37;;;;;;;37.80;25.55;;;;;;;10.90;45.01;101469.28;2425690;80;25258;-79
2021/03/03 09:08:59;;;;;;;45.10;26.05;;;;;;;10.94;44.97;101464.65;2306895;84;25722;-77
2021/03/03 09:12:28;;;;;;;43.38;25.43;;;;;;;10.95;44.89;101454.68;2337258;84;25794;-76
2021/03/03 09:16:11;;;;;;;40.63;26.30;;;;;;;10.99;44.93;101459.18;2337560;84;25578;-77
2021/03/03 09:19:35;;;;;;;48.30;26.60;;;;;;;11.03;44.88;101464.98;2337766;84;25664;-75
2021/03/03 09:22:56;;;;;;;41.10;25.82;;;;;;;11.08;44.86;101453.44;2337509;84;25683;-73
2021/03/03 09:26:22;;;;;;;47.58;27.00;;;;;;;11.11;44.82;101448.34;2386242;80;25754;-77
2021/03/03 09:29:43;;;;;;;41.33;25.55;;;;;;;11.15;44.80;101439.80;2462620;79;25833;-75
2021/03/03 09:33:08;;;;;;;41.50;24.57;;;;;;;11.19;44.77;101436.46;2468746;80;25975;-75
2021/03/03 09:36:30;;;;;;;40.80;26.30;;;;;;;11.23;44.73;101430.52;2445430;79;25715;-77
2021/03/03 09:39:56;;;;;;;44.27;28.55;;;;;;;11.28;44.70;101426.80;2440525;79;25698;-77
2021/03/03 09:43:18;;;;;;;47.08;26.27;;;;;;;11.31;44.65;101419.97;2468906;80;25687;-74
2021/03/03 09:46:59;;;;;;;52.80;28.27;;;;;;;11.35;44.65;101421.84;2469149;79;25182;-74
2021/03/03 09:50:26;;;;;;;39.85;25.48;;;;;;;11.39;44.63;101418.05;2436889;80;25871;-75
2021/03/03 09:53:59;;;;;;;40.92;25.52;;;;;;;11.43;44.55;101417.32;2474404;79;25212;-82
2021/03/03 09:57:22;;;;;;;45.73;27.20;;;;;;;11.47;44.55;101414.87;2437901;80;25555;-78
2021/03/03 10:00:44;;;;;;;41.83;24.82;;;;;;;11.53;44.54;101418.12;2463756;80;25693;-79
2021/03/03 10:04:06;;;;;;;40.52;24.27;;;;;;;11.58;44.47;101413.98;2468748;79;25815;-81
2021/03/03 10:07:28;;;;;;;45.60;27.15;;;;;;;11.63;44.41;101419.36;2427679;80;25247;-79
2021/03/03 10:10:54;;;;;;;40.30;23.92;;;;;;;11.66;44.47;101414.24;2498959;79;25587;-78
2021/03/03 10:14:18;;;;;;;53.63;25.27;;;;;;;11.71;44.44;101409.67;2452452;79;25672;-79
2021/03/03 10:17:47;;;;;;;39.67;24.70;;;;;;;11.75;44.40;101415.88;2482556;78;26264;-76
2021/03/03 10:21:13;;;;;;;39.55;24.43;;;;;;;11.79;44.33;101410.81;2448341;80;25221;-86
2021/03/03 10:24:34;;;;;;;39.90;24.52;;;;;;;11.86;44.36;101401.92;2428062;78;25512;-84
2021/03/03 10:28:15;;;;;;;46.70;25.12;;;;;;;11.89;44.33;101400.30;2493255;79;25556;-83
2021/03/03 10:31:41;;;;;;;39.58;24.40;;;;;;;11.94;44.24;101392.18;2387036;81;26494;-87
2021/03/03 10:35:03;;;;;;;38.73;24.25;;;;;;;12.00;44.30;101393.70;2340736;83;26125;-81
2021/03/03 10:38:29;;;;;;;41.25;25.48;;;;;;;12.05;44.25;101389.95;2376311;83;25733;-81
2021/03/03 10:42:04;;;;;;;39.35;24.82;;;;;;;12.11;44.19;101381.41;2378055;83;25831;-80
2021/03/03 10:45:26;;;;;;;43.50;25.70;;;;;;;12.17;44.15;101377.27;2360500;83;25618;-78
2021/03/03 10:48:48;;;;;;;35.28;21.97;;;;;;;12.23;44.13;101373.98;2360857;83;25801;-80
2021/03/03 10:52:20;;;;;;;43.50;22.93;;;;;;;12.31;44.07;101365.07;2360973;82;25754;-87
2021/03/03 10:55:42;;;;;;;44.38;25.25;;;;;;;12.37;45.52;101362.66;2360939;83;25777;-83
2021/03/03 10:59:10;;;;;;;48.08;25.72;;;;;;;12.35;45.38;101358.70;2357170;83;25796;-77
2021/03/03 11:02:31;;;;;;;47.00;24.98;;;;;;;12.25;46.12;101353.59;2373682;83;25965;-76
2021/03/03 11:06:01;;;;;;;43.73;26.12;;;;;;;12.20;46.48;101343.81;2357395;83;25842;-76
2021/03/03 11:09:25;;;;;;;39.53;26.80;;;;;;;12.17;47.25;101343.29;2409741;81;25697;-75
2021/03/03 11:12:46;;;;;;;47.25;28.23;;;;;;;12.17;47.40;101343.71;2466715;79;25552;-76
2021/03/03 11:16:07;;;;;;;51.73;27.07;;;;;;;12.12;47.38;101337.47;2433207;79;25718;-77
2021/03/03 11:19:33;;;;;;;44.55;27.98;;;;;;;12.03;47.40;101321.05;2463706;79;25608;-77
2021/03/03 11:22:57;;;;;;;58.68;29.57;;;;;;;11.94;47.38;101318.13;2447461;80;25834;-79
2021/03/03 11:26:18;;;;;;;47.08;29.15;;;;;;;11.92;47.60;101315.90;2484571;78;25797;-76
2021/03/03 11:29:40;;;;;;;46.98;28.55;;;;;;;11.94;48.17;101309.86;2448171;80;26352;-77
2021/03/03 11:33:04;;;;;;;45.10;27.80;;;;;;;11.97;48.52;101299.52;2426789;80;25705;-77
2021/03/03 11:36:26;;;;;;;41.55;25.82;;;;;;;12.02;48.40;101301.87;2420820;81;25561;-77
2021/03/03 11:39:51;;;;;;;49.33;25.88;;;;;;;12.06;48.80;101298.94;2499610;79;25671;-79
2021/03/03 11:43:11;;;;;;;46.68;27.58;;;;;;;12.12;49.02;101295.22;2461129;80;25250;-83
2021/03/03 11:46:34;;;;;;;60.65;32.90;;;;;;;12.16;48.86;101290.97;2468102;80;25697;-81
2021/03/03 11:49:56;;;;;;;55.30;32.23;;;;;;;12.03;48.07;101282.73;2468134;80;25800;-80
2021/03/03 11:53:18;;;;;;;65.05;33.70;;;;;;;11.79;47.87;101271.45;2472189;79;25630;-81
2021/03/03 11:56:40;;;;;;;57.30;34.03;;;;;;;11.57;47.63;101271.14;2450941;78;25191;-81
2021/03/03 12:00:09;;;;;;;52.58;31.93;;;;;;;11.31;47.81;101265.94;2449283;79;25719;-82
2021/03/03 12:03:31;;;;;;;65.57;32.73;;;;;;;11.20;47.93;101252.91;2492243;79;25651;-81
2021/03/03 12:06:53;;;;;;;45.65;31.33;;;;;;;11.14;48.03;101244.89;2463731;79;25956;-81
2021/03/03 12:10:15;;;;;;;50.63;32.00;;;;;;;11.07;48.07;101234.66;2493071;79;25568;-81
2021/03/03 12:13:41;;;;;;;58.13;32.45;;;;;;;11.06;48.14;101234.16;2493285;79;25972;-79
2021/03/03 12:17:03;;;;;;;39.65;22.22;;;;;;;11.08;48.21;101222.48;2493267;79;25707;-79
2021/03/03 12:20:28;;;;;;;45.63;25.30;;;;;;;11.61;52.02;101209.06;2466420;78;25618;-80
2021/03/03 12:23:49;;;;;;;54.83;32.58;;;;;;;12.43;51.57;101200.72;2468066;80;25677;-87
2021/03/03 12:27:16;;;;;;;54.95;31.75;;;;;;;12.60;49.28;101203.81;2461733;78;25598;-86
2021/03/03 12:30:37;;;;;;;67.10;33.58;;;;;;;12.36;48.60;101200.95;2456888;80;25764;-86
2021/03/03 12:33:59;;;;;;;65.47;35.23;;;;;;;12.16;48.37;101204.28;2421747;80;25395;-84
2021/03/03 12:37:22;;;;;;;64.92;36.33;;;;;;;12.01;48.28;101195.56;2471695;79;25567;-86
2021/03/03 12:40:47;;;;;;;64.15;34.38;;;;;;;11.96;48.25;101193.21;2523406;78;25636;-84
2021/03/03 12:44:10;;;;;;;57.80;34.08;;;;;;;12.01;48.20;101185.50;2495688;78;25861;-85
2021/03/03 12:47:37;;;;;;;61.53;34.37;;;;;;;11.99;47.99;101182.86;2405572;80;25655;-84
2021/03/03 12:51:09;;;;;;;57.85;33.70;;;;;;;12.00;47.96;101179.82;2384977;82;25370;-85
2021/03/03 12:54:33;;;;;;;51.95;33.60;;;;;;;12.27;48.01;101176.72;2463758;78;25261;-86
2021/03/03 12:58:25;;;;;;;52.58;32.33;;;;;;;12.91;47.76;101171.52;2310942;85;25666;-85
2021/03/03 13:02:05;;;;;;;56.55;34.35;;;;;;;13.76;46.85;101164.94;2605696;75;30696;-83
2021/03/03 13:05:29;;;;;;;51.95;32.55;;;;;;;14.12;46.15;101154.40;2564753;77;25614;-82
2021/03/03 13:08:59;;;;;;;51.85;34.40;;;;;;;14.27;45.62;101149.89;2476918;78;26147;-79
2021/03/03 13:12:21;;;;;;;46.25;32.23;;;;;;;14.56;45.17;101147.02;2471327;78;25748;-77
2021/03/03 13:15:42;;;;;;;52.00;34.38;;;;;;;14.94;44.77;101141.59;2422167;81;25696;-78
2021/03/03 13:19:05;;;;;;;50.73;33.48;;;;;;;15.28;44.33;101133.86;2470419;78;25506;-77
2021/03/03 13:22:29;;;;;;;50.45;32.65;;;;;;;15.59;43.84;101132.59;2466187;80;25626;-78
2021/03/03 13:25:50;;;;;;;53.75;34.63;;;;;;;15.97;43.37;101129.25;2484202;78;25706;-77
2021/03/03 13:29:18;;;;;;;55.28;33.08;;;;;;;16.42;42.89;101126.73;2467745;80;25671;-77
2021/03/03 13:32:39;;;;;;;54.25;32.73;;;;;;;16.87;42.30;101114.06;2467800;80;25694;-78
2021/03/03 13:36:02;;;;;;;52.33;30.95;;;;;;;17.26;41.66;101112.22;2467638;80;25573;-78
2021/03/03 13:39:24;;;;;;;58.13;34.60;;;;;;;17.63;41.07;101109.85;2467601;79;25625;-78
2021/03/03 13:42:47;;;;;;;48.83;33.95;;;;;;;18.00;40.41;101109.65;2471440;79;25195;-79
2021/03/03 13:46:09;;;;;;;55.80;32.30;;;;;;;18.23;39.81;101103.59;2493841;78;25616;-79
2021/03/03 13:49:31;;;;;;;53.95;34.25;;;;;;;18.37;39.53;101101.87;2483379;78;25626;-78
2021/03/03 13:52:52;;;;;;;58.73;33.02;;;;;;;18.52;39.22;101093.98;2477483;78;25686;-78
2021/03/03 13:56:14;;;;;;;52.23;33.25;;;;;;;18.60;38.74;101093.58;2472859;78;25620;-76
2021/03/03 13:59:36;;;;;;;55.90;31.33;;;;;;;18.69;38.44;101090.50;2468643;79;25548;-78
2021/03/03 14:02:59;;;;;;;52.90;33.88;;;;;;;18.83;38.28;101076.48;2479265;78;25569;-78
2021/03/03 14:06:21;;;;;;;53.92;32.55;;;;;;;19.25;37.96;101067.22;2514603;78;25734;-80
2021/03/03 14:09:48;;;;;;;52.17;32.00;;;;;;;19.87;37.22;101068.85;2477649;79;25589;-76
2021/03/03 14:13:09;;;;;;;52.62;34.33;;;;;;;19.86;36.75;101066.23;2479893;79;25583;-78
2021/03/03 14:16:31;;;;;;;48.68;32.67;;;;;;;19.72;36.58;101064.50;2480002;79;25483;-78
2021/03/03 14:19:53;;;;;;;48.20;33.13;;;;;;;19.49;36.47;101055.72;2479771;79;25640;-80
2021/03/03 14:23:18;;;;;;;54.85;32.95;;;;;;;19.21;36.52;101044.32;2479730;78;25339;-78
2021/03/03 14:26:41;;;;;;;54.60;34.35;;;;;;;18.95;36.56;101028.47;2480018;79;25585;-79
2021/03/03 14:30:05;;;;;;;52.33;34.23;;;;;;;18.64;36.67;101019.19;2479956;79;25918;-80
2021/03/03 14:33:29;;;;;;;61.63;36.65;;;;;;;18.38;36.89;101012.11;2480061;79;25647;-77
2021/03/03 14:36:50;;;;;;;59.95;35.88;;;;;;;18.09;37.13;101004.56;2480125;79;25610;-78
2021/03/03 14:40:13;;;;;;;53.05;35.48;;;;;;;17.98;37.45;100999.70;2479995;79;25769;-78
2021/03/03 14:43:38;;;;;;;57.00;35.63;;;;;;;17.72;37.51;100997.83;2480050;79;25214;-77
2021/03/03 14:47:00;;;;;;;58.00;35.20;;;;;;;17.44;37.88;100987.13;2480126;79;25409;-79
2021/03/03 14:50:21;;;;;;;55.60;36.33;;;;;;;17.27;38.15;100982.66;2480033;79;25641;-77
2021/03/03 14:53:43;;;;;;;58.73;36.28;;;;;;;17.02;38.55;100979.00;2480082;79;25512;-79
2021/03/03 14:57:05;;;;;;;57.23;35.70;;;;;;;16.74;38.85;100977.04;2479776;79;25658;-80
2021/03/03 15:00:31;;;;;;;53.38;33.78;;;;;;;16.19;39.21;100944.05;2479950;79;25542;-80
2021/03/03 15:03:53;;;;;;;58.63;35.85;;;;;;;16.19;39.21;100944.05;2480029;79;25478;-80
2021/03/03 15:07:15;;;;;;;58.23;35.45;;;;;;;16.11;39.83;100957.56;2479999;79;25554;-76
2021/03/03 15:10:38;;;;;;;53.23;35.00;;;;;;;15.88;40.21;100947.68;2479244;78;25565;-75
2021/03/03 15:13:59;;;;;;;59.50;37.03;;;;;;;15.69;40.52;100929.52;2478674;78;26481;-75
2021/03/03 15:17:21;;;;;;;53.20;34.43;;;;;;;15.62;40.77;100928.94;2479051;79;25653;-75
2021/03/03 15:20:43;;;;;;;58.13;34.67;;;;;;;15.58;40.87;100928.02;2478961;79;25681;-75
2021/03/03 15:24:07;;;;;;;63.13;36.03;;;;;;;15.53;40.92;100920.53;2479023;79;25846;-75
2021/03/03 15:27:28;;;;;;;52.00;34.18;;;;;;;15.47;40.95;100923.08;2478875;79;25732;-75
2021/03/03 15:30:49;;;;;;;56.18;35.50;;;;;;;15.50;41.03;100910.42;2478865;79;25321;-75